West Sumpter, MI

9:29 AM EDT on March 30, 2017 (GMT -0400)
Sumpter Township | | Change Station

Elev 666 ft 42.13 °N, 83.54 °W | Updated 20 seconds ago

Rain
Rain
36.5 °F
Feels Like 36 °F
N
1.0
Wind Variable Wind from ESE

Today
High -- | Low -- °F
--% Chance of Precip.
Yesterday
High -- | Low -- °F
Precip. -- in
Pressure 30.00 in
Visibility 3.0 miles
Clouds Few 4900 ft
Mostly Cloudy 6000 ft
Overcast 8500 ft
Windchill 36 °F
Dew Point 34 °F
Humidity 93%
Rainfall 0.43 in
Snow Depth Not available.
7:19 AM 7:57 PM
Waxing Crescent, 8% visible
SPECI KYIP 301315Z AUTO 07013KT 3SM RA BR FEW049 BKN060 OVC085 03/02 A3000 RMK AO2 PRESFR P0008 T00330017
Pressure 30.00 in
Visibility 3.0 miles
Clouds Few 4900 ft
Mostly Cloudy 6000 ft
Overcast 8500 ft
Windchill 36 °F
Dew Point 34 °F
Humidity 93%
Rainfall 0.43 in
Snow Depth Not available.
7:19 AM 7:57 PM
Waxing Crescent, 8% visible
SPECI KYIP 301315Z AUTO 07013KT 3SM RA BR FEW049 BKN060 OVC085 03/02 A3000 RMK AO2 PRESFR P0008 T00330017

Get Severe Weather Alerts

Thanks for signing up!

Be on the lookout for a verification email in your inbox.

You'll start receiving the daily forecast at 8 AM.

×

10-Day Weather Forecast

Almanac

Astronomy

Mar. 30, 2017 Rise Set
Actual Time
Civil Twilight
Nautical Twilight
Astronomical Twilight
Moon
Length of Visible Light
Length of Day
Tomorrow will be .
, % of the Moon is Illuminated

Today's Extremes

State Highs State Lows

Community

WunderPhotos

Upload Photos

1,962,540 photos uploaded!

WunderBlog® & News

Nearby

Air Quality

  Air Quality AQ Index Pollutant
Not available.

Snow Depth

Station Depth Elevation

Earthquake Activity

City Distance Mag. Time & Date
Minimum magnitude displayed is 2.5.

Earthquake Activity

City Distance Mag. Time & Date
Minimum magnitude displayed is 2.5.

Coastal Water Temperatures

Place Temperature

Stations

Nearby Weather Stations

Station Location Temp. Windchill Dew Point Humidity Wind Precip. Elev Updated Type
                   

Watches & Warnings

There are currently no watches in effect.